Bookmark and Share
Track history (hours):
 

MSC Maya

Last reported at 2014-Apr-11 06:21 UTC. Time now 2014-Apr-17 03:56 UTC.
Position S 32°18' E 015°28'.

Length 180 m; draft 7.9 m.

Type: Cargo ship. MMSI: 351384000.

NotesDate/timePositionNaut miles runAvg speedWind from/ knotsBaromVisibWave heightAir tempDewpointWater temp
2014-Apr-11 06:21S 32°18' E 015°28'14015.7
2014-Apr-10 21:25S 33°31' E 017°51'1514.8
2014-Apr-10 20:24S 33°38' E 018°07'1515.0
2014-Apr-10 19:25S 33°50' E 018°18'8 9.3
2014-Apr-10 18:33S 33°54' E 018°26'1 0.5
2014-Apr-10 17:32S 33°55' E 018°26'0 0.0
2014-Apr-10 16:32S 33°55' E 018°26'0 0.0
2014-Apr-10 15:32S 33°55' E 018°26'0 0.0
2014-Apr-10 14:29S 33°55' E 018°26'0 0.0
2014-Apr-10 13:32S 33°55' E 018°26'0 0.0
2014-Apr-10 12:32S 33°55' E 018°26'0 0.0
2014-Apr-10 11:32S 33°55' E 018°26'0 0.0
2014-Apr-10 10:26S 33°55' E 018°26'0 0.0
2014-Apr-10 09:32S 33°55' E 018°26'0 0.0
2014-Apr-10 08:17S 33°55' E 018°26'0 0.0
2014-Apr-10 07:32S 33°55' E 018°26'0 0.0
2014-Apr-10 06:29S 33°55' E 018°26'0 0.0
2014-Apr-10 05:32S 33°55' E 018°26'0 0.0
2014-Apr-10 04:32S 33°55' E 018°26'0 0.0
2014-Apr-10 03:32S 33°55' E 018°26'0 0.0
2014-Apr-10 02:32S 33°55' E 018°26'0 0.0
2014-Apr-10 01:32S 33°55' E 018°26'0 0.0
2014-Apr-10 00:32S 33°55' E 018°26'0 0.0
2014-Apr-09 23:32S 33°55' E 018°26'0 0.0
2014-Apr-09 22:32S 33°55' E 018°26'0 0.0
2014-Apr-09 21:32S 33°55' E 018°26'0 0.3
2014-Apr-09 20:33S 33°55' E 018°26'4 4.1
2014-Apr-09 19:33S 33°52' E 018°22'1010.1
2014-Apr-09 18:32S 34°01' E 018°14'1515.2
2014-Apr-09 17:32S 34°16' E 018°13'1716.6
2014-Apr-09 16:31S 34°28' E 018°28'1717.7
2014-Apr-09 15:34S 34°35' E 018°47'1817.8
2014-Apr-09 14:33S 34°42' E 019°06'1818.0
2014-Apr-09 13:33S 34°50' E 019°26'2218.0
2014-Apr-09 12:19S 34°58' E 019°51'1418.0
2014-Apr-09 11:33S 34°58' E 020°08'2417.5
2014-Apr-09 10:12S 34°57' E 020°37'1117.4
2014-Apr-09 09:33S 34°56' E 020°51'3617.2
2014-Apr-09 07:26S 34°50' E 021°34'1917.1
2014-Apr-09 06:19S 34°47' E 021°58'3317.5
2014-Apr-09 04:26S 34°45' E 022°38'2417.6
2014-Apr-09 03:04S 34°39' E 023°06'4717.5
2014-Apr-09 00:24S 34°30' E 024°02'2217.8
2014-Apr-08 23:10S 34°26' E 024°28'7217.9
2014-Apr-08 19:11S 34°08' E 025°52'10918.5
2014-Apr-08 13:16S 33°16' E 027°47'20118.0
2014-Apr-08 02:08S 30°54' E 030°34'1016.6
2014-Apr-08 01:33S 30°46' E 030°39'5015.9
2014-Apr-07 22:23S 30°01' E 031°05'1112.2
2014-Apr-07 21:30S 29°50' E 031°05'3 0.3
2014-Apr-07 11:11S 29°52' E 031°03'0 0.0
2014-Apr-07 08:05S 29°52' E 031°03'0 0.0
2014-Apr-07 06:23S 29°52' E 031°03'0 0.0
2014-Apr-07 05:17S 29°52' E 031°03'0 0.0
2014-Apr-07 03:29S 29°52' E 031°03'0 0.0
2014-Apr-07 02:23S 29°52' E 031°03'0 0.0
2014-Apr-07 01:11S 29°52' E 031°03'0 0.0
2014-Apr-06 21:23S 29°52' E 031°03'0 0.0
2014-Apr-06 20:29S 29°52' E 031°03'0 0.0
2014-Apr-06 19:29S 29°52' E 031°03'0 0.0
2014-Apr-06 18:11S 29°52' E 031°03'0 0.0
2014-Apr-06 17:23S 29°52' E 031°03'0 0.0
2014-Apr-06 16:29S 29°52' E 031°03'0 0.0
2014-Apr-06 15:23S 29°52' E 031°03'0 0.0
2014-Apr-06 14:11S 29°52' E 031°03'0 0.0
2014-Apr-06 13:29S 29°52' E 031°03'0 0.0
2014-Apr-06 12:17S 29°52' E 031°03'0 0.0
2014-Apr-06 11:29S 29°52' E 031°03'0 0.0
2014-Apr-06 10:29S 29°52' E 031°03'0 0.0
2014-Apr-06 09:17S 29°52' E 031°03'0 0.0
2014-Apr-06 08:29S 29°52' E 031°03'0 0.0
2014-Apr-06 07:29S 29°52' E 031°03'0 0.0
2014-Apr-06 06:29S 29°52' E 031°03'0 0.0
2014-Apr-06 05:29S 29°52' E 031°03'0 0.0
2014-Apr-06 03:23S 29°52' E 031°03'1 1.1
2014-Apr-06 02:33S 29°53' E 031°02'0 0.5
2014-Apr-06 01:31S 29°53' E 031°01'0 0.0
2014-Apr-05 22:31S 29°53' E 031°01'0 0.0
2014-Apr-05 21:33S 29°53' E 031°01'0 0.0
2014-Apr-05 20:33S 29°53' E 031°01'0 0.0
2014-Apr-05 19:32S 29°53' E 031°01'0 0.0
2014-Apr-05 18:33S 29°53' E 031°01'0 0.0
2014-Apr-05 17:33S 29°53' E 031°01'0 0.0
2014-Apr-05 16:33S 29°53' E 031°01'0 0.0
2014-Apr-05 15:16S 29°53' E 031°01'0 0.0
2014-Apr-05 14:33S 29°53' E 031°01'0 0.0
2014-Apr-05 13:32S 29°53' E 031°01'0 0.0
2014-Apr-05 12:32S 29°53' E 031°01'0 0.0
2014-Apr-05 11:33S 29°53' E 031°01'0 0.1
2014-Apr-05 10:26S 29°53' E 031°01'0 0.0
2014-Apr-05 06:30S 29°53' E 031°01'0 0.0
2014-Apr-05 05:15S 29°53' E 031°01'0 0.0
2014-Apr-05 04:31S 29°53' E 031°01'0 0.0
2014-Apr-05 03:33S 29°53' E 031°01'0 0.0
2014-Apr-05 02:17S 29°53' E 031°01'0 0.0
2014-Apr-05 01:20S 29°53' E 031°01'0 0.0
2014-Apr-05 00:28S 29°53' E 031°01'0 0.0
2014-Apr-04 23:17S 29°53' E 031°01'2 3.2
2014-Apr-04 22:33S 29°52' E 031°04'5 5.3
2014-Apr-04 21:33S 29°49' E 031°08'4 4.1
2014-Apr-04 20:33S 29°45' E 031°10'3 3.2
2014-Apr-04 19:27S 29°41' E 031°11'0 0.1
2014-Apr-04 18:33S 29°41' E 031°11'0 0.0
2014-Apr-04 17:21S 29°41' E 031°11'0 0.0
2014-Apr-04 16:33S 29°41' E 031°11'0 0.0
2014-Apr-04 15:33S 29°41' E 031°11'0 0.0
2014-Apr-04 14:33S 29°41' E 031°11'0 0.0
2014-Apr-04 13:33S 29°41' E 031°11'0 0.0
2014-Apr-04 12:33S 29°41' E 031°11'0 0.0
2014-Apr-04 11:33S 29°41' E 031°11'0 0.0
2014-Apr-04 10:33S 29°41' E 031°11'0 0.0
2014-Apr-04 09:33S 29°41' E 031°11'0 0.0
2014-Apr-04 08:33S 29°41' E 031°11'0 0.0
2014-Apr-04 07:21S 29°41' E 031°11'0 0.0
2014-Apr-04 06:33S 29°41' E 031°11'0 0.0
2014-Apr-04 05:27S 29°41' E 031°11'0 0.0
2014-Apr-04 04:33S 29°41' E 031°11'0 0.0
2014-Apr-04 03:33S 29°41' E 031°11'0 0.0
2014-Apr-04 02:33S 29°41' E 031°11'0 0.0
2014-Apr-03 23:09S 29°41' E 031°11'0 0.1
2014-Apr-03 22:33S 29°41' E 031°11'0 0.0
2014-Apr-03 21:27S 29°41' E 031°11'0 0.0
2014-Apr-03 20:15S 29°41' E 031°11'0 0.0
2014-Apr-03 17:33S 29°41' E 031°11'0 0.0
2014-Apr-03 14:27S 29°41' E 031°11'0 0.0
2014-Apr-03 13:21S 29°41' E 031°11'0 0.0
2014-Apr-03 09:27S 29°41' E 031°11'0 0.0
2014-Apr-03 08:27S 29°41' E 031°11'0 0.0
2014-Apr-03 06:21S 29°41' E 031°11'0 0.0
2014-Apr-03 02:21S 29°41' E 031°11'0 0.1
2014-Apr-03 01:33S 29°41' E 031°11'0 0.0
2014-Apr-03 00:09S 29°41' E 031°11'0 0.0
2014-Apr-02 23:33S 29°41' E 031°11'0 0.0
2014-Apr-02 22:27S 29°41' E 031°11'0 0.0
2014-Apr-02 21:21S 29°41' E 031°11'0 0.2
2014-Apr-02 20:33S 29°42' E 031°10'0 0.1
2014-Apr-02 19:15S 29°42' E 031°11'0 0.0
2014-Apr-02 18:33S 29°42' E 031°11'0 0.0
2014-Apr-02 16:27S 29°42' E 031°11'0 0.0
2014-Apr-02 10:27S 29°41' E 031°10'0 0.0
2014-Apr-02 08:33S 29°41' E 031°10'0 0.0
2014-Apr-02 07:09S 29°42' E 031°10'0 0.0
2014-Apr-02 06:27S 29°42' E 031°10'0 0.0
2014-Apr-02 04:27S 29°42' E 031°10'0 0.0
2014-Apr-02 03:27S 29°42' E 031°10'0 0.1
2014-Apr-02 02:15S 29°41' E 031°10'0 0.0
2014-Apr-02 01:33S 29°41' E 031°10'0 0.0
2014-Apr-02 00:15S 29°41' E 031°10'0 0.1
2014-Apr-01 23:15S 29°41' E 031°11'0 0.1
2014-Apr-01 22:33S 29°41' E 031°11'0 0.2
2014-Apr-01 21:27S 29°41' E 031°10'0 0.1
2014-Apr-01 20:33S 29°42' E 031°10'0 0.0
2014-Apr-01 19:33S 29°42' E 031°10'0 0.0
2014-Apr-01 18:21S 29°42' E 031°10'0 0.0
2014-Apr-01 17:33S 29°42' E 031°10'0 0.1
2014-Apr-01 16:33S 29°41' E 031°10'0 0.2
2014-Apr-01 15:21S 29°42' E 031°10'0 0.1
2014-Apr-01 14:33S 29°42' E 031°10'0 0.1
2014-Apr-01 13:33S 29°42' E 031°10'0 0.0
2014-Apr-01 12:33S 29°42' E 031°10'0 0.0
2014-Apr-01 11:32S 29°42' E 031°10'0 0.0
2014-Apr-01 10:32S 29°42' E 031°10'0 0.0
2014-Apr-01 07:26S 29°42' E 031°10'0 0.0
2014-Apr-01 06:32S 29°42' E 031°10'  

Dump ship's entire track history

sailing weather and tide predictions

MSC Maya — 3FNF8 — position and weather